Time;durP1;ratioP1;P1;durP2;ratioP2;P2;SDS_P1;SDS_P2;PMS_P1;PMS_P2;Temp;Humidity;BMP_temperature;BMP_pressure;BME280_temperature;BME280_humidity;BME280_pressure;Samples;Min_cycle;Max_cycle;Signal;HPM_P1;HPM_P2
2023/04/06 00:00:48;;;;;;;11.38;8.10;;;;;;;;;;5065887;28;20059;-66
2023/04/06 00:03:15;;;;;;;12.70;7.95;;;;;;;;;;5064735;28;20056;-66
2023/04/06 00:05:41;;;;;;;9.30;7.43;;;;;;;;;;5069492;28;20459;-66
2023/04/06 00:08:07;;;;;;;13.27;9.00;;;;;;;;;;5072104;28;20495;-66
2023/04/06 00:10:33;;;;;;;18.48;7.93;;;;;;;;;;5068653;28;20072;-67
2023/04/06 00:12:59;;;;;;;8.88;7.70;;;;;;;;;;5069738;28;20055;-67
2023/04/06 00:15:26;;;;;;;12.65;8.80;;;;;;;;;;5072791;28;20116;-68
2023/04/06 00:17:52;;;;;;;13.80;8.75;;;;;;;;;;5070298;28;20082;-67
2023/04/06 00:20:18;;;;;;;13.82;9.48;;;;;;;;;;5068004;28;20036;-67
2023/04/06 00:22:45;;;;;;;14.35;8.50;;;;;;;;;;5068459;28;20115;-68
2023/04/06 00:25:11;;;;;;;13.75;8.85;;;;;;;;;;5073145;28;20039;-67
2023/04/06 00:27:37;;;;;;;13.95;8.10;;;;;;;;;;5067594;28;20032;-67
2023/04/06 00:30:05;;;;;;;12.98;8.98;;;;;;;;;;5048433;28;20036;-66
2023/04/06 00:32:31;;;;;;;13.20;9.27;;;;;;;;;;5068072;28;20047;-68
2023/04/06 00:34:58;;;;;;;11.00;8.73;;;;;;;;;;5069791;28;20040;-67
2023/04/06 00:37:23;;;;;;;15.88;8.85;;;;;;;;;;5046877;28;20051;-67
2023/04/06 00:39:51;;;;;;;11.85;8.18;;;;;;;;;;5049779;28;20651;-67
2023/04/06 00:42:24;;;;;;;11.85;8.32;;;;;;;;;;5051008;28;20038;-67
2023/04/06 00:44:52;;;;;;;10.88;8.82;;;;;;;;;;5049697;28;20086;-67
2023/04/06 00:47:17;;;;;;;11.32;9.40;;;;;;;;;;5046990;28;20125;-67
2023/04/06 00:49:43;;;;;;;12.30;8.82;;;;;;;;;;5049027;28;20032;-67
2023/04/06 00:52:09;;;;;;;13.35;9.75;;;;;;;;;;5068509;28;20687;-67
2023/04/06 00:54:34;;;;;;;12.43;7.78;;;;;;;;;;5049431;28;20037;-66
2023/04/06 00:57:00;;;;;;;13.07;10.05;;;;;;;;;;5065734;28;20476;-67
2023/04/06 00:59:29;;;;;;;16.00;9.82;;;;;;;;;;5049643;28;20073;-68
2023/04/06 01:01:56;;;;;;;13.82;8.80;;;;;;;;;;5044281;28;20078;-67
2023/04/06 01:04:32;;;;;;;10.98;8.88;;;;;;;;;;5049371;28;20044;-67
2023/04/06 01:06:58;;;;;;;16.00;9.43;;;;;;;;;;5063549;28;20034;-67
2023/04/06 01:09:30;;;;;;;13.40;9.30;;;;;;;;;;5049644;28;20045;-67
2023/04/06 01:11:59;;;;;;;10.60;8.55;;;;;;;;;;5052720;28;20047;-67
2023/04/06 01:14:29;;;;;;;12.00;9.05;;;;;;;;;;5048980;28;20035;-67
2023/04/06 01:17:00;;;;;;;7.15;6.45;;;;;;;;;;5052954;28;20643;-67
2023/04/06 01:19:29;;;;;;;12.60;9.77;;;;;;;;;;5048113;28;20069;-67
2023/04/06 01:21:55;;;;;;;14.55;9.80;;;;;;;;;;5047377;28;20123;-66
2023/04/06 01:24:29;;;;;;;13.50;9.43;;;;;;;;;;5066831;28;20040;-67
2023/04/06 01:27:21;;;;;;;12.07;9.60;;;;;;;;;;5065670;28;20060;-67
2023/04/06 01:30:02;;;;;;;13.32;8.63;;;;;;;;;;5048941;28;20046;-67
2023/04/06 01:32:41;;;;;;;14.30;10.18;;;;;;;;;;5046450;28;20577;-67
2023/04/06 01:35:08;;;;;;;9.10;7.75;;;;;;;;;;5045785;28;20497;-67
2023/04/06 01:37:39;;;;;;;14.32;8.75;;;;;;;;;;5048156;28;20039;-67
2023/04/06 01:40:08;;;;;;;13.68;7.65;;;;;;;;;;5049112;28;20519;-67
2023/04/06 01:42:43;;;;;;;16.13;9.35;;;;;;;;;;5048261;28;20047;-67
2023/04/06 01:45:12;;;;;;;13.55;8.68;;;;;;;;;;5048880;28;20039;-67
2023/04/06 01:47:39;;;;;;;24.15;9.30;;;;;;;;;;5048508;28;20054;-67
2023/04/06 01:50:06;;;;;;;12.48;8.63;;;;;;;;;;5047049;28;20543;-67
2023/04/06 01:52:37;;;;;;;15.38;10.40;;;;;;;;;;5048657;28;20048;-67
2023/04/06 01:55:03;;;;;;;13.30;9.88;;;;;;;;;;5051391;28;20029;-67
2023/04/06 01:57:49;;;;;;;10.32;7.80;;;;;;;;;;5063545;28;20561;-67
2023/04/06 02:00:26;;;;;;;10.50;7.85;;;;;;;;;;5049655;28;20075;-66
2023/04/06 02:02:54;;;;;;;11.43;8.77;;;;;;;;;;5051213;28;20097;-66
2023/04/06 02:05:25;;;;;;;11.82;8.50;;;;;;;;;;5047789;28;20037;-66
2023/04/06 02:07:52;;;;;;;12.48;9.35;;;;;;;;;;5048984;28;20040;-66
2023/04/06 02:10:26;;;;;;;14.25;9.07;;;;;;;;;;5050102;28;20059;-66
2023/04/06 02:12:52;;;;;;;11.68;9.38;;;;;;;;;;5066483;28;20713;-66
2023/04/06 02:15:23;;;;;;;11.75;7.90;;;;;;;;;;5043164;28;20041;-67
2023/04/06 02:17:49;;;;;;;11.60;8.63;;;;;;;;;;5068811;28;20435;-68
2023/04/06 02:20:14;;;;;;;13.57;8.60;;;;;;;;;;5049352;28;20040;-66
2023/04/06 02:22:40;;;;;;;14.73;10.05;;;;;;;;;;5049276;28;20043;-67
2023/04/06 02:25:06;;;;;;;13.75;9.10;;;;;;;;;;5051398;28;20040;-67
2023/04/06 02:27:32;;;;;;;12.45;9.30;;;;;;;;;;5048954;28;20039;-67
2023/04/06 02:29:58;;;;;;;20.85;9.80;;;;;;;;;;5070868;28;20110;-66
2023/04/06 02:32:24;;;;;;;16.17;10.00;;;;;;;;;;5048406;28;20449;-66
2023/04/06 02:34:51;;;;;;;11.43;8.23;;;;;;;;;;5049789;28;20041;-68
2023/04/06 02:37:19;;;;;;;14.13;9.82;;;;;;;;;;5046341;28;20571;-66
2023/04/06 02:39:45;;;;;;;13.88;9.10;;;;;;;;;;5051101;28;20585;-67
2023/04/06 02:42:11;;;;;;;14.40;8.88;;;;;;;;;;5043825;28;20120;-66
2023/04/06 02:44:37;;;;;;;12.77;8.57;;;;;;;;;;5046273;28;20089;-66
2023/04/06 02:47:03;;;;;;;14.35;10.18;;;;;;;;;;5049917;28;20085;-66
2023/04/06 02:49:28;;;;;;;10.93;7.10;;;;;;;;;;5045415;28;20061;-67
2023/04/06 02:51:56;;;;;;;10.95;8.32;;;;;;;;;;5045773;28;20519;-66
2023/04/06 02:54:29;;;;;;;15.13;9.38;;;;;;;;;;5038636;28;20456;-66
2023/04/06 02:56:54;;;;;;;14.70;9.30;;;;;;;;;;5047445;28;20115;-66
2023/04/06 02:59:23;;;;;;;13.65;9.88;;;;;;;;;;5066728;28;20036;-66
2023/04/06 03:01:59;;;;;;;16.23;9.98;;;;;;;;;;5048159;28;20043;-67
2023/04/06 03:04:25;;;;;;;17.40;10.18;;;;;;;;;;5063374;28;20450;-66
2023/04/06 03:06:54;;;;;;;13.27;9.38;;;;;;;;;;5051144;28;20032;-67
2023/04/06 03:09:31;;;;;;;14.00;9.38;;;;;;;;;;5048108;28;20412;-66
2023/04/06 03:11:57;;;;;;;8.50;7.45;;;;;;;;;;5046893;28;20484;-66
2023/04/06 03:14:23;;;;;;;9.52;8.18;;;;;;;;;;5057522;28;20087;-67
2023/04/06 03:16:49;;;;;;;15.23;8.55;;;;;;;;;;5051450;28;20037;-67
2023/04/06 03:19:19;;;;;;;17.67;9.43;;;;;;;;;;5055174;28;20051;-68
2023/04/06 03:21:45;;;;;;;9.27;7.40;;;;;;;;;;5052262;28;20051;-67
2023/04/06 03:24:13;;;;;;;13.70;8.73;;;;;;;;;;5048871;28;20029;-67
2023/04/06 03:26:39;;;;;;;12.38;8.13;;;;;;;;;;5050690;28;20037;-67
2023/04/06 03:29:07;;;;;;;8.98;7.40;;;;;;;;;;5050785;28;20125;-67
2023/04/06 03:31:32;;;;;;;8.13;6.80;;;;;;;;;;5053969;28;20539;-66
2023/04/06 03:34:07;;;;;;;5.32;4.82;;;;;;;;;;5052721;28;20040;-66
2023/04/06 03:36:35;;;;;;;8.88;6.05;;;;;;;;;;5055589;28;20041;-66
2023/04/06 03:39:02;;;;;;;16.42;8.38;;;;;;;;;;5050673;28;20021;-66
2023/04/06 03:41:31;;;;;;;9.27;7.45;;;;;;;;;;5051989;28;20126;-67
2023/04/06 03:44:05;;;;;;;15.35;9.10;;;;;;;;;;5052064;28;20107;-67
2023/04/06 03:46:31;;;;;;;10.73;8.73;;;;;;;;;;5069491;28;20170;-67
2023/04/06 03:48:58;;;;;;;11.77;8.13;;;;;;;;;;5066316;28;20752;-66
2023/04/06 03:51:25;;;;;;;12.32;8.30;;;;;;;;;;5050991;28;20040;-66
2023/04/06 03:53:51;;;;;;;13.20;9.30;;;;;;;;;;5072881;28;20040;-67
2023/04/06 03:56:16;;;;;;;13.02;9.20;;;;;;;;;;5051552;28;20028;-67
2023/04/06 03:58:44;;;;;;;11.75;8.82;;;;;;;;;;5068434;28;20020;-67
2023/04/06 04:01:09;;;;;;;7.75;5.97;;;;;;;;;;5052739;28;20040;-67
2023/04/06 04:03:35;;;;;;;17.58;8.93;;;;;;;;;;5056807;28;20024;-67
2023/04/06 04:06:01;;;;;;;12.15;7.90;;;;;;;;;;5067813;28;20094;-67
2023/04/06 04:08:26;;;;;;;15.63;9.35;;;;;;;;;;5055617;28;20031;-67
2023/04/06 04:10:52;;;;;;;16.33;9.55;;;;;;;;;;5052147;28;20086;-68
2023/04/06 04:13:19;;;;;;;9.73;6.50;;;;;;;;;;5051196;28;20062;-67
2023/04/06 04:15:47;;;;;;;;;;;;;;;;;;5051378;28;20730;-67
2023/04/06 04:18:14;;;;;;;7.78;6.13;;;;;;;;;;5068639;28;20539;-66
2023/04/06 04:20:40;;;;;;;7.57;6.78;;;;;;;;;;5052953;28;20048;-66
2023/04/06 04:23:08;;;;;;;2.85;2.75;;;;;;;;;;5055908;28;20119;-66
2023/04/06 04:25:34;;;;;;;12.77;8.00;;;;;;;;;;5045782;28;20041;-67
2023/04/06 04:28:00;;;;;;;12.20;8.18;;;;;;;;;;5054443;28;20097;-66
2023/04/06 04:30:27;;;;;;;12.88;8.70;;;;;;;;;;5052560;28;20039;-67
2023/04/06 04:32:52;;;;;;;9.93;8.00;;;;;;;;;;5050562;28;20029;-66
2023/04/06 04:35:21;;;;;;;15.37;9.33;;;;;;;;;;5051854;28;20051;-67
2023/04/06 04:37:47;;;;;;;6.47;5.72;;;;;;;;;;5053228;28;20388;-67
2023/04/06 04:40:12;;;;;;;8.52;6.82;;;;;;;;;;5053729;28;20031;-64
2023/04/06 04:43:04;;;;;;;7.78;5.38;;;;;;;;;;5061728;28;20062;-65
2023/04/06 04:45:33;;;;;;;8.52;6.80;;;;;;;;;;5054542;28;20046;-65
2023/04/06 04:48:07;;;;;;;10.40;8.48;;;;;;;;;;5056071;28;20059;-64
2023/04/06 04:50:45;;;;;;;;;;;;;;;;;;5054173;28;20052;-64
2023/04/06 04:53:11;;;;;;;12.48;5.70;;;;;;;;;;5050670;28;19920;-64
2023/04/06 04:55:37;;;;;;;17.88;16.05;;;;;;;;;;5048103;28;20024;-66
2023/04/06 04:58:05;;;;;;;9.35;8.35;;;;;;;;;;5068930;28;20032;-63
2023/04/06 05:00:46;;;;;;;9.93;6.75;;;;;;;;;;5049600;28;20042;-65
2023/04/06 05:03:21;;;;;;;13.48;8.52;;;;;;;;;;5066325;28;20732;-64
2023/04/06 05:05:54;;;;;;;11.93;8.43;;;;;;;;;;5050891;28;20040;-64
2023/04/06 05:08:23;;;;;;;8.07;7.07;;;;;;;;;;5053633;28;20507;-64
2023/04/06 05:10:49;;;;;;;5.93;5.22;;;;;;;;;;5048759;28;20041;-64
2023/04/06 05:13:15;;;;;;;7.93;6.25;;;;;;;;;;5048858;28;20454;-65
2023/04/06 05:15:41;;;;;;;7.95;7.03;;;;;;;;;;5045601;28;20032;-64
2023/04/06 05:18:19;;;;;;;9.85;4.47;;;;;;;;;;5049321;28;20036;-65
2023/04/06 05:20:45;;;;;;;5.22;3.90;;;;;;;;;;5049590;28;20041;-64
2023/04/06 05:23:11;;;;;;;9.63;7.80;;;;;;;;;;5053105;28;20396;-64
2023/04/06 05:25:37;;;;;;;24.13;7.88;;;;;;;;;;5066751;28;20032;-65
2023/04/06 05:28:16;;;;;;;8.20;7.25;;;;;;;;;;5053639;28;20551;-64
2023/04/06 05:30:44;;;;;;;5.93;5.40;;;;;;;;;;5049535;28;20517;-65
2023/04/06 05:33:11;;;;;;;6.75;6.05;;;;;;;;;;5050670;28;20044;-64
2023/04/06 05:35:57;;;;;;;11.18;8.35;;;;;;;;;;5056759;28;20071;-64
2023/04/06 05:38:23;;;;;;;16.58;8.25;;;;;;;;;;5054996;28;20626;-64
2023/04/06 05:40:50;;;;;;;13.70;9.45;;;;;;;;;;5050523;28;20281;-65
2023/04/06 05:43:19;;;;;;;14.43;9.32;;;;;;;;;;5056873;28;20119;-64
2023/04/06 05:45:51;;;;;;;11.63;8.43;;;;;;;;;;5051588;28;20147;-64
2023/04/06 05:48:17;;;;;;;9.38;7.20;;;;;;;;;;5051381;28;20514;-66
2023/04/06 05:50:43;;;;;;;13.88;9.82;;;;;;;;;;5054358;28;20116;-65
2023/04/06 05:53:12;;;;;;;13.05;9.55;;;;;;;;;;5056717;28;20077;-64
2023/04/06 05:55:42;;;;;;;13.15;9.95;;;;;;;;;;5051977;28;20032;-64
2023/04/06 05:58:13;;;;;;;11.93;8.45;;;;;;;;;;5051270;28;20484;-64
2023/04/06 06:00:39;;;;;;;10.30;9.05;;;;;;;;;;5051784;28;20033;-64
2023/04/06 06:03:08;;;;;;;12.43;8.57;;;;;;;;;;5052149;28;20124;-64
2023/04/06 06:05:34;;;;;;;11.70;9.02;;;;;;;;;;5052921;28;20039;-64
2023/04/06 06:08:07;;;;;;;12.60;8.95;;;;;;;;;;5052065;28;20038;-65
2023/04/06 06:10:34;;;;;;;16.90;9.25;;;;;;;;;;5059808;28;20076;-64
2023/04/06 06:13:00;;;;;;;16.27;11.13;;;;;;;;;;5052675;28;20041;-64
2023/04/06 06:15:27;;;;;;;13.88;8.85;;;;;;;;;;5048084;28;20028;-65
2023/04/06 06:17:53;;;;;;;12.45;8.85;;;;;;;;;;5049523;28;20561;-65
2023/04/06 06:20:18;;;;;;;10.13;8.05;;;;;;;;;;5069582;28;20040;-65
2023/04/06 06:22:44;;;;;;;9.63;7.65;;;;;;;;;;5069164;28;20522;-63
2023/04/06 06:25:15;;;;;;;12.48;9.20;;;;;;;;;;5052044;28;20047;-65
2023/04/06 06:27:42;;;;;;;7.93;6.00;;;;;;;;;;5055319;28;20047;-63
2023/04/06 06:30:08;;;;;;;9.13;8.20;;;;;;;;;;5054287;28;20036;-64
2023/04/06 06:32:37;;;;;;;11.25;8.05;;;;;;;;;;5046584;28;20033;-63
2023/04/06 06:35:03;;;;;;;19.05;13.60;;;;;;;;;;5066660;28;20032;-65
2023/04/06 06:37:29;;;;;;;17.65;9.25;;;;;;;;;;5051715;28;20052;-65
2023/04/06 06:39:54;;;;;;;14.07;8.85;;;;;;;;;;5067167;28;20392;-65
2023/04/06 06:42:20;;;;;;;18.63;6.82;;;;;;;;;;5047181;28;20043;-64
2023/04/06 06:44:57;;;;;;;15.43;7.65;;;;;;;;;;5052576;28;20356;-65
2023/04/06 06:47:23;;;;;;;11.85;8.63;;;;;;;;;;5049828;28;20304;-64
2023/04/06 06:49:49;;;;;;;14.32;10.85;;;;;;;;;;5055576;28;20051;-65
2023/04/06 06:52:15;;;;;;;12.57;9.55;;;;;;;;;;5055796;28;20047;-64
2023/04/06 06:54:40;;;;;;;8.95;7.13;;;;;;;;;;5052904;28;20032;-65
2023/04/06 06:57:06;;;;;;;13.68;10.73;;;;;;;;;;5075696;28;20032;-64
2023/04/06 06:59:31;;;;;;;14.82;9.43;;;;;;;;;;5071709;28;20024;-65
2023/04/06 07:01:57;;;;;;;14.40;9.80;;;;;;;;;;5054032;28;20032;-65
2023/04/06 07:04:23;;;;;;;10.95;8.43;;;;;;;;;;5054645;28;20506;-66
2023/04/06 07:06:50;;;;;;;16.92;9.52;;;;;;;;;;5056681;28;20368;-65
2023/04/06 07:09:16;;;;;;;12.77;10.35;;;;;;;;;;5073028;28;20231;-65
2023/04/06 07:11:42;;;;;;;13.57;10.23;;;;;;;;;;5051764;28;20256;-65
2023/04/06 07:14:07;;;;;;;13.57;10.88;;;;;;;;;;5075877;28;20101;-65
2023/04/06 07:16:33;;;;;;;12.32;9.70;;;;;;;;;;5055450;28;20515;-66
2023/04/06 07:18:59;;;;;;;11.98;10.48;;;;;;;;;;5049767;28;20093;-66
2023/04/06 07:21:25;;;;;;;18.13;10.45;;;;;;;;;;5071420;28;20031;-66
2023/04/06 07:23:50;;;;;;;14.95;10.60;;;;;;;;;;5055630;28;21059;-64
2023/04/06 07:26:16;;;;;;;16.40;10.32;;;;;;;;;;5054510;28;20403;-67
2023/04/06 07:28:42;;;;;;;19.63;11.52;;;;;;;;;;5067336;28;20538;-66
2023/04/06 07:31:09;;;;;;;12.55;11.18;;;;;;;;;;5057612;28;20404;-66
2023/04/06 07:33:34;;;;;;;15.90;10.60;;;;;;;;;;5053758;28;20038;-66
2023/04/06 07:36:01;;;;;;;15.10;11.13;;;;;;;;;;5053549;28;20211;-65
2023/04/06 07:38:26;;;;;;;16.00;11.43;;;;;;;;;;5068622;28;20035;-66
2023/04/06 07:40:52;;;;;;;18.42;11.52;;;;;;;;;;5058610;28;20024;-66
2023/04/06 07:43:18;;;;;;;12.07;10.25;;;;;;;;;;5056780;28;20103;-66
2023/04/06 07:45:44;;;;;;;17.23;11.35;;;;;;;;;;5068708;28;20059;-66
2023/04/06 07:48:10;;;;;;;13.05;10.68;;;;;;;;;;5052751;28;20399;-64
2023/04/06 07:50:36;;;;;;;14.23;10.93;;;;;;;;;;5072130;28;20020;-65
2023/04/06 07:53:03;;;;;;;16.05;11.27;;;;;;;;;;5058465;28;20037;-66
2023/04/06 07:55:29;;;;;;;12.27;10.95;;;;;;;;;;5052866;28;20126;-66
2023/04/06 07:57:55;;;;;;;14.60;10.88;;;;;;;;;;5071826;28;20060;-66
2023/04/06 08:00:21;;;;;;;14.02;11.73;;;;;;;;;;5069649;28;20036;-66
2023/04/06 08:02:47;;;;;;;15.32;11.25;;;;;;;;;;5071237;28;20177;-66
2023/04/06 08:05:12;;;;;;;15.55;11.68;;;;;;;;;;5070577;28;20032;-66
2023/04/06 08:07:38;;;;;;;14.77;11.20;;;;;;;;;;5070928;28;20024;-66
2023/04/06 08:10:04;;;;;;;12.50;10.10;;;;;;;;;;5066227;28;20039;-66
2023/04/06 08:12:30;;;;;;;14.30;10.63;;;;;;;;;;5066922;28;20044;-65
2023/04/06 08:14:56;;;;;;;12.82;11.63;;;;;;;;;;5069715;28;20146;-66
2023/04/06 08:17:22;;;;;;;16.02;11.18;;;;;;;;;;5072435;28;20036;-65
2023/04/06 08:19:48;;;;;;;14.32;11.35;;;;;;;;;;5070957;28;20047;-66
2023/04/06 08:22:13;;;;;;;14.23;11.23;;;;;;;;;;5069093;28;20047;-65
2023/04/06 08:24:39;;;;;;;14.07;11.77;;;;;;;;;;5073817;28;20037;-66
2023/04/06 08:27:05;;;;;;;12.77;11.55;;;;;;;;;;5074425;28;20043;-66
2023/04/06 08:29:30;;;;;;;15.57;11.55;;;;;;;;;;5073476;28;20091;-66
2023/04/06 08:31:56;;;;;;;14.75;10.15;;;;;;;;;;5065754;28;20036;-65
2023/04/06 08:34:22;;;;;;;12.07;10.85;;;;;;;;;;5069700;28;20078;-66
2023/04/06 08:36:48;;;;;;;13.52;11.10;;;;;;;;;;5056727;28;20139;-66
2023/04/06 08:39:14;;;;;;;13.75;10.95;;;;;;;;;;5066887;28;20111;-66
2023/04/06 08:41:42;;;;;;;12.80;11.10;;;;;;;;;;5068582;28;20135;-66
2023/04/06 08:44:08;;;;;;;13.35;11.48;;;;;;;;;;5074354;28;20063;-66
2023/04/06 08:46:34;;;;;;;12.52;11.25;;;;;;;;;;5069614;28;20063;-66
2023/04/06 08:49:02;;;;;;;12.13;10.93;;;;;;;;;;5068677;28;20032;-66
2023/04/06 08:51:30;;;;;;;13.30;10.88;;;;;;;;;;5056182;28;20404;-66
2023/04/06 08:53:57;;;;;;;11.93;10.68;;;;;;;;;;5074431;28;20119;-66
2023/04/06 08:56:25;;;;;;;13.30;10.32;;;;;;;;;;5069829;28;20050;-66
2023/04/06 08:58:52;;;;;;;13.35;10.63;;;;;;;;;;5071493;28;20455;-66
2023/04/06 09:01:21;;;;;;;13.02;10.35;;;;;;;;;;5069545;28;20194;-66
2023/04/06 09:03:48;;;;;;;;;;;;;;;;;;5072418;28;20071;-66
2023/04/06 09:06:14;;;;;;;11.10;9.85;;;;;;;;;;5070263;28;19982;-66
2023/04/06 09:08:41;;;;;;;11.77;10.65;;;;;;;;;;5071102;28;20037;-66
2023/04/06 09:11:07;;;;;;;18.52;10.93;;;;;;;;;;5071313;28;20271;-66
2023/04/06 09:13:54;;;;;;;14.68;10.98;;;;;;;;;;5073156;28;20068;-66
2023/04/06 09:16:20;;;;;;;12.85;11.20;;;;;;;;;;5065905;28;20036;-66
2023/04/06 09:18:46;;;;;;;13.15;10.48;;;;;;;;;;5072316;28;20032;-66
2023/04/06 09:21:12;;;;;;;12.13;10.85;;;;;;;;;;5069867;28;20028;-66
2023/04/06 09:23:39;;;;;;;14.45;10.98;;;;;;;;;;5065525;28;20090;-66
2023/04/06 09:26:13;;;;;;;15.23;10.70;;;;;;;;;;5069273;28;20071;-67
2023/04/06 09:28:54;;;;;;;13.63;10.32;;;;;;;;;;5072425;28;20174;-66
2023/04/06 09:31:32;;;;;;;15.95;11.85;;;;;;;;;;5067584;28;20039;-66
2023/04/06 09:33:59;;;;;;;14.15;10.30;;;;;;;;;;5064858;28;20404;-66
2023/04/06 09:36:33;;;;;;;16.15;11.60;;;;;;;;;;5074317;28;20087;-66
2023/04/06 09:39:03;;;;;;;13.25;10.60;;;;;;;;;;5062417;28;20032;-66
2023/04/06 09:41:33;;;;;;;14.98;10.85;;;;;;;;;;5070197;28;20047;-66
2023/04/06 09:44:17;;;;;;;12.18;10.77;;;;;;;;;;5062669;28;20082;-66
2023/04/06 09:46:44;;;;;;;13.85;10.88;;;;;;;;;;5068115;28;20032;-66
2023/04/06 09:49:12;;;;;;;15.65;11.05;;;;;;;;;;5058688;28;20044;-66
2023/04/06 09:51:47;;;;;;;13.10;11.07;;;;;;;;;;5058155;28;20033;-65
2023/04/06 09:54:18;;;;;;;14.65;11.65;;;;;;;;;;5062581;28;20111;-68
2023/04/06 09:57:11;;;;;;;9.52;8.60;;;;;;;;;;5055294;28;20515;-66
2023/04/06 09:59:52;;;;;;;12.93;9.93;;;;;;;;;;5066041;28;20032;-65
2023/04/06 10:02:34;;;;;;;12.95;10.68;;;;;;;;;;5070754;28;20500;-66
2023/04/06 10:05:09;;;;;;;12.65;10.40;;;;;;;;;;5065671;28;20029;-66
2023/04/06 10:07:36;;;;;;;11.38;9.77;;;;;;;;;;5067802;28;20032;-66
2023/04/06 10:10:03;;;;;;;15.75;11.35;;;;;;;;;;5067295;28;20486;-67
2023/04/06 10:12:29;;;;;;;10.52;8.98;;;;;;;;;;5068273;28;20134;-66
2023/04/06 10:14:56;;;;;;;10.40;8.30;;;;;;;;;;5066529;28;20508;-68
2023/04/06 10:17:24;;;;;;;12.23;9.38;;;;;;;;;;5068141;28;20032;-67
2023/04/06 10:19:52;;;;;;;9.32;8.40;;;;;;;;;;5053280;28;20410;-67
2023/04/06 10:22:42;;;;;;;11.77;9.07;;;;;;;;;;5062673;28;20356;-67
2023/04/06 10:25:08;;;;;;;12.10;8.77;;;;;;;;;;5063076;28;20567;-65
2023/04/06 10:27:34;;;;;;;9.45;8.20;;;;;;;;;;5070824;28;20071;-67
2023/04/06 10:30:04;;;;;;;9.10;8.18;;;;;;;;;;5062633;28;20123;-67
2023/04/06 10:32:38;;;;;;;9.07;8.05;;;;;;;;;;5069136;28;20495;-67
2023/04/06 10:35:11;;;;;;;10.60;8.88;;;;;;;;;;5063230;28;20535;-67
2023/04/06 10:38:07;;;;;;;9.65;8.63;;;;;;;;;;5069493;28;20040;-67
2023/04/06 10:40:37;;;;;;;10.52;9.00;;;;;;;;;;5065897;28;20059;-67
2023/04/06 10:43:11;;;;;;;9.90;8.50;;;;;;;;;;5067578;28;20503;-68
2023/04/06 10:45:37;;;;;;;10.55;8.35;;;;;;;;;;5068672;28;20032;-68
2023/04/06 10:48:17;;;;;;;11.43;8.40;;;;;;;;;;5064671;28;20037;-67
2023/04/06 10:50:48;;;;;;;9.55;8.55;;;;;;;;;;5065687;28;20037;-66
2023/04/06 10:53:25;;;;;;;9.57;7.75;;;;;;;;;;5072009;28;20248;-67
2023/04/06 10:55:55;;;;;;;9.38;8.15;;;;;;;;;;5062397;28;20094;-67
2023/04/06 10:58:25;;;;;;;9.95;7.93;;;;;;;;;;5064627;28;20534;-67
2023/04/06 11:00:51;;;;;;;10.48;8.70;;;;;;;;;;5066320;28;20928;-67
2023/04/06 11:03:17;;;;;;;9.25;7.97;;;;;;;;;;5066961;28;20314;-67
2023/04/06 11:05:45;;;;;;;8.68;7.55;;;;;;;;;;5064318;28;20032;-67
2023/04/06 11:08:10;;;;;;;10.02;8.15;;;;;;;;;;5064614;28;20039;-67
2023/04/06 11:10:36;;;;;;;8.82;7.93;;;;;;;;;;5069287;28;20471;-67
2023/04/06 11:13:02;;;;;;;9.38;8.20;;;;;;;;;;5065906;28;20038;-67
2023/04/06 11:15:34;;;;;;;8.40;7.50;;;;;;;;;;5062730;28;20040;-67
2023/04/06 11:18:03;;;;;;;8.02;7.18;;;;;;;;;;5062314;28;20484;-67
2023/04/06 11:20:29;;;;;;;9.18;8.10;;;;;;;;;;5065627;28;20459;-68
2023/04/06 11:22:55;;;;;;;10.07;8.30;;;;;;;;;;5066586;28;20036;-67
2023/04/06 11:25:20;;;;;;;10.10;8.07;;;;;;;;;;5064329;28;20036;-67
2023/04/06 11:27:46;;;;;;;9.90;7.65;;;;;;;;;;5070977;28;20407;-67
2023/04/06 11:30:13;;;;;;;8.60;7.60;;;;;;;;;;5064760;28;20032;-68
2023/04/06 11:32:43;;;;;;;9.40;7.70;;;;;;;;;;5062990;28;20121;-67
2023/04/06 11:35:23;;;;;;;8.50;7.53;;;;;;;;;;5068218;28;20359;-67
2023/04/06 11:37:49;;;;;;;;;;;;;;;;;;5074347;28;20040;-67
2023/04/06 11:40:15;;;;;;;10.93;8.40;;;;;;;;;;5065700;28;19967;-67
2023/04/06 11:42:40;;;;;;;8.70;7.80;;;;;;;;;;5070238;28;20041;-67
2023/04/06 11:45:07;;;;;;;8.70;7.80;;;;;;;;;;5066975;28;20505;-67
2023/04/06 11:47:35;;;;;;;8.68;7.78;;;;;;;;;;5070228;28;20039;-67
2023/04/06 11:50:09;;;;;;;8.80;7.63;;;;;;;;;;5066669;28;20036;-67
2023/04/06 11:52:35;;;;;;;9.90;8.43;;;;;;;;;;5072167;28;20032;-67
2023/04/06 11:55:11;;;;;;;9.30;8.30;;;;;;;;;;5072332;28;20047;-67
2023/04/06 11:57:36;;;;;;;8.93;8.02;;;;;;;;;;5072280;28;20036;-67
2023/04/06 12:00:02;;;;;;;9.15;7.88;;;;;;;;;;5066691;28;20553;-67
2023/04/06 12:02:32;;;;;;;9.15;8.25;;;;;;;;;;5068140;28;20051;-67
2023/04/06 12:04:57;;;;;;;9.18;8.35;;;;;;;;;;5071534;28;20032;-66
2023/04/06 12:07:23;;;;;;;11.07;8.98;;;;;;;;;;5065592;28;20040;-67
2023/04/06 12:09:49;;;;;;;10.93;9.00;;;;;;;;;;5069293;28;20090;-67
2023/04/06 12:12:14;;;;;;;9.20;8.30;;;;;;;;;;5065885;28;20048;-67
2023/04/06 12:14:40;;;;;;;9.65;8.75;;;;;;;;;;5064157;28;20088;-67
2023/04/06 12:17:05;;;;;;;11.32;8.38;;;;;;;;;;5071359;28;20032;-67
2023/04/06 12:19:31;;;;;;;9.88;8.32;;;;;;;;;;5072274;28;20086;-67
2023/04/06 12:21:57;;;;;;;9.00;8.07;;;;;;;;;;5067250;28;20032;-67
2023/04/06 12:24:23;;;;;;;9.00;8.10;;;;;;;;;;5069502;28;20039;-67
2023/04/06 12:26:49;;;;;;;7.75;7.05;;;;;;;;;;5072461;28;20036;-67
2023/04/06 12:29:15;;;;;;;10.20;8.05;;;;;;;;;;5065293;28;20043;-67
2023/04/06 12:31:42;;;;;;;8.40;7.47;;;;;;;;;;5068632;28;20044;-67
2023/04/06 12:34:08;;;;;;;9.82;7.65;;;;;;;;;;5055356;28;20036;-67
2023/04/06 12:36:34;;;;;;;12.05;8.10;;;;;;;;;;5066950;28;20032;-67
2023/04/06 12:39:03;;;;;;;10.45;8.48;;;;;;;;;;5068929;28;20028;-67
2023/04/06 12:41:29;;;;;;;8.90;8.07;;;;;;;;;;5074226;28;20044;-67
2023/04/06 12:43:55;;;;;;;8.45;7.65;;;;;;;;;;5069640;28;20028;-67
2023/04/06 12:46:21;;;;;;;9.40;8.50;;;;;;;;;;5053630;28;20215;-67
2023/04/06 12:48:47;;;;;;;8.95;8.13;;;;;;;;;;5069872;28;20032;-67
2023/04/06 12:51:13;;;;;;;9.52;8.23;;;;;;;;;;5071349;28;20510;-67
2023/04/06 12:53:39;;;;;;;9.23;8.20;;;;;;;;;;5068956;28;20036;-67
2023/04/06 12:56:16;;;;;;;7.57;6.88;;;;;;;;;;5068679;28;20039;-67
2023/04/06 12:58:42;;;;;;;10.27;7.63;;;;;;;;;;5070092;28;20487;-67
2023/04/06 13:01:08;;;;;;;7.90;7.18;;;;;;;;;;5068861;28;20039;-67
2023/04/06 13:03:34;;;;;;;7.63;6.88;;;;;;;;;;5063124;28;20028;-67
2023/04/06 13:06:01;;;;;;;7.13;6.53;;;;;;;;;;5068816;28;20036;-67
2023/04/06 13:08:27;;;;;;;9.82;6.80;;;;;;;;;;5064452;28;20028;-67
2023/04/06 13:10:52;;;;;;;6.93;6.28;;;;;;;;;;5069296;28;20060;-67
2023/04/06 13:13:29;;;;;;;7.40;6.75;;;;;;;;;;5065684;28;20124;-67
2023/04/06 13:16:01;;;;;;;7.88;7.13;;;;;;;;;;5071470;28;20050;-67
2023/04/06 13:18:28;;;;;;;9.70;7.47;;;;;;;;;;5066363;28;20020;-67
2023/04/06 13:20:55;;;;;;;8.25;7.05;;;;;;;;;;5066744;28;20086;-67
2023/04/06 13:23:22;;;;;;;8.13;7.32;;;;;;;;;;5071031;28;20036;-67
2023/04/06 13:25:47;;;;;;;7.40;6.80;;;;;;;;;;5065372;28;20435;-67
2023/04/06 13:28:13;;;;;;;7.38;6.68;;;;;;;;;;5065343;28;20028;-67
2023/04/06 13:30:39;;;;;;;7.75;6.80;;;;;;;;;;5069877;28;20040;-67
2023/04/06 13:33:06;;;;;;;7.97;7.03;;;;;;;;;;5065359;28;20044;-67
2023/04/06 13:35:32;;;;;;;7.85;7.13;;;;;;;;;;5066763;28;20377;-67
2023/04/06 13:37:57;;;;;;;7.10;6.53;;;;;;;;;;5063489;28;20029;-67
2023/04/06 13:40:23;;;;;;;8.40;7.50;;;;;;;;;;5066128;28;20085;-67
2023/04/06 13:42:50;;;;;;;8.18;7.10;;;;;;;;;;5055781;28;20036;-67
2023/04/06 13:45:16;;;;;;;7.78;7.03;;;;;;;;;;5057634;28;20577;-67
2023/04/06 13:47:41;;;;;;;9.35;7.60;;;;;;;;;;5059824;28;20129;-67
2023/04/06 13:50:07;;;;;;;8.25;7.45;;;;;;;;;;5066091;28;20032;-67
2023/04/06 13:52:33;;;;;;;8.40;7.68;;;;;;;;;;5064122;28;20090;-67
2023/04/06 13:54:58;;;;;;;8.25;7.45;;;;;;;;;;5061950;28;20040;-67
2023/04/06 13:57:24;;;;;;;9.50;7.47;;;;;;;;;;5068622;28;20047;-68
2023/04/06 13:59:50;;;;;;;8.15;7.35;;;;;;;;;;5062568;28;21037;-67
2023/04/06 14:02:16;;;;;;;8.13;7.35;;;;;;;;;;5062915;28;20043;-67
2023/04/06 14:04:41;;;;;;;7.78;7.07;;;;;;;;;;5065745;28;20048;-66
2023/04/06 14:07:07;;;;;;;8.10;7.30;;;;;;;;;;5054312;28;20211;-66
2023/04/06 14:09:33;;;;;;;9.07;7.30;;;;;;;;;;5068137;28;20043;-66
2023/04/06 14:11:59;;;;;;;8.45;6.97;;;;;;;;;;5053352;28;20151;-66
2023/04/06 14:14:25;;;;;;;8.15;7.10;;;;;;;;;;5057035;28;20112;-66
2023/04/06 14:16:51;;;;;;;7.43;6.65;;;;;;;;;;5063262;28;20032;-66
2023/04/06 14:19:17;;;;;;;6.95;6.35;;;;;;;;;;5068600;28;20040;-66
2023/04/06 14:21:47;;;;;;;7.07;6.38;;;;;;;;;;5063353;28;20043;-66
2023/04/06 14:24:13;;;;;;;9.07;7.20;;;;;;;;;;5057869;28;20040;-66
2023/04/06 14:26:41;;;;;;;7.70;6.85;;;;;;;;;;5058701;28;20250;-67
2023/04/06 14:29:07;;;;;;;8.43;6.85;;;;;;;;;;5057264;28;20041;-67
2023/04/06 14:31:33;;;;;;;8.30;7.25;;;;;;;;;;5062652;28;20048;-67
2023/04/06 14:34:01;;;;;;;7.05;6.35;;;;;;;;;;5065994;28;20040;-67
2023/04/06 14:36:28;;;;;;;7.82;7.07;;;;;;;;;;5065343;28;20484;-67
2023/04/06 14:38:56;;;;;;;8.88;7.43;;;;;;;;;;5063741;28;20396;-68